createdAt,value
2018-06-15T00:00:07.556Z,79.65
2018-06-15T00:02:36.175Z,80.36
2018-06-15T00:05:04.543Z,81.07
2018-06-15T00:07:32.624Z,82.41
2018-06-15T00:10:01.308Z,82.78
2018-06-15T00:12:29.360Z,83.83
2018-06-15T00:15:04.012Z,83.90
2018-06-15T00:17:32.067Z,82.85
2018-06-15T00:20:00.128Z,82.94
2018-06-15T00:22:28.203Z,84.12
2018-06-15T00:24:56.245Z,84.30
2018-06-15T00:27:30.946Z,82.80
2018-06-15T00:29:58.999Z,84.16
2018-06-15T00:32:27.132Z,83.79
2018-06-15T00:34:55.179Z,85.19
2018-06-15T00:37:23.229Z,84.58
2018-06-15T00:39:51.304Z,84.51
2018-06-15T00:42:19.376Z,83.66
2018-06-15T00:44:47.423Z,84.28
2018-06-15T00:47:15.480Z,83.85
2018-06-15T00:49:43.543Z,83.31
2018-06-15T00:52:11.608Z,83.52
2018-06-15T00:54:39.678Z,83.99
2018-06-15T00:57:19.124Z,84.02
2018-06-15T00:59:47.241Z,83.48
2018-06-15T01:02:15.335Z,84.32
2018-06-15T01:04:43.482Z,84.94
2018-06-15T01:07:11.474Z,84.47
2018-06-15T01:09:39.574Z,84.35
2018-06-15T01:12:07.635Z,85.12
2018-06-15T01:14:35.690Z,84.17
2018-06-15T01:17:03.763Z,84.79
2018-06-15T01:19:31.812Z,84.00
2018-06-15T01:21:59.852Z,83.90
2018-06-15T01:24:27.924Z,83.78
2018-06-15T01:26:55.952Z,82.63
2018-06-15T01:29:24.015Z,82.38
2018-06-15T01:31:52.082Z,81.91
2018-06-15T01:34:20.151Z,80.52
2018-06-15T01:36:48.290Z,80.31
2018-06-15T01:39:16.346Z,79.84
2018-06-15T01:41:44.384Z,79.91
2018-06-15T01:44:12.472Z,80.53
2018-06-15T01:46:40.505Z,80.92
2018-06-15T01:49:08.551Z,81.69
2018-06-15T01:51:36.659Z,83.12
2018-06-15T01:54:04.724Z,84.26
2018-06-15T01:56:32.863Z,83.93
2018-06-15T01:59:00.920Z,84.80
2018-06-15T02:01:29.022Z,83.92
2018-06-15T02:03:57.023Z,83.85
2018-06-15T02:06:25.091Z,83.49
2018-06-15T02:08:53.153Z,83.43
2018-06-15T02:11:21.207Z,83.45
2018-06-15T02:13:49.287Z,85.36
2018-06-15T02:16:17.459Z,85.92
2018-06-15T02:18:45.659Z,85.37
2018-06-15T02:21:13.727Z,85.51
2018-06-15T02:23:41.812Z,86.71
2018-06-15T02:26:09.879Z,87.14
2018-06-15T02:28:37.977Z,87.17
2018-06-15T02:31:06.096Z,86.09
2018-06-15T02:33:34.187Z,85.03
2018-06-15T02:36:02.275Z,84.62
2018-06-15T02:38:30.439Z,85.39
2018-06-15T02:40:58.525Z,85.64
2018-06-15T02:43:26.597Z,85.98
2018-06-15T02:45:54.835Z,85.58
2018-06-15T02:48:22.916Z,86.00
2018-06-15T02:50:50.988Z,86.77
2018-06-15T02:53:19.095Z,87.07
2018-06-15T02:55:47.264Z,86.90
2018-06-15T02:58:15.355Z,87.42
2018-06-15T03:00:43.451Z,87.50
2018-06-15T03:03:11.566Z,87.15
2018-06-15T03:05:39.701Z,85.98
2018-06-15T03:08:07.770Z,87.62
2018-06-15T03:10:35.857Z,87.83
2018-06-15T03:13:03.928Z,88.26
2018-06-15T03:15:32.036Z,89.23
2018-06-15T03:18:00.144Z,89.40
2018-06-15T03:20:28.339Z,88.61
2018-06-15T03:22:56.422Z,89.01
2018-06-15T03:25:24.503Z,89.08
2018-06-15T03:27:52.583Z,88.29
2018-06-15T03:30:20.650Z,88.62
2018-06-15T03:32:48.715Z,88.73
2018-06-15T03:35:16.836Z,88.96
2018-06-15T03:37:44.952Z,88.86
2018-06-15T03:40:13.042Z,89.16
2018-06-15T03:42:41.143Z,89.42
2018-06-15T03:45:09.214Z,88.69
2018-06-15T03:47:37.278Z,88.63
2018-06-15T03:50:05.392Z,89.04
2018-06-15T03:52:33.467Z,89.05
2018-06-15T03:55:01.711Z,88.51
2018-06-15T03:57:29.781Z,89.71
2018-06-15T03:59:57.891Z,89.38
2018-06-15T04:02:25.998Z,89.25
2018-06-15T04:04:54.095Z,89.23
2018-06-15T04:07:22.184Z,88.96
2018-06-15T04:09:50.382Z,88.42
2018-06-15T04:12:18.464Z,88.02
2018-06-15T04:14:46.549Z,88.48
2018-06-15T04:17:14.632Z,87.71
2018-06-15T04:19:42.795Z,87.72
2018-06-15T04:22:10.931Z,86.72
2018-06-15T04:24:39.020Z,86.37
2018-06-15T04:27:07.099Z,86.25
2018-06-15T04:29:35.191Z,86.21
2018-06-15T04:32:03.439Z,87.01
2018-06-15T04:34:31.539Z,87.21
2018-06-15T04:36:59.620Z,87.03
2018-06-15T04:39:27.718Z,87.34
2018-06-15T04:41:55.795Z,86.95
2018-06-15T04:44:23.921Z,86.35
2018-06-15T04:46:52.030Z,86.17
2018-06-15T04:49:20.108Z,85.81
2018-06-15T04:51:48.220Z,86.66
2018-06-15T04:54:16.299Z,87.01
2018-06-15T04:56:44.415Z,86.95
2018-06-15T04:59:12.517Z,86.17
2018-06-15T05:01:40.591Z,86.04
2018-06-15T05:04:08.668Z,86.39
2018-06-15T05:06:36.765Z,85.33
2018-06-15T05:09:07.508Z,85.10
2018-06-15T05:11:35.589Z,85.14
2018-06-15T05:14:03.738Z,83.80
2018-06-15T05:16:31.913Z,84.44
2018-06-15T05:18:59.977Z,83.56
2018-06-15T05:21:28.103Z,82.39
2018-06-15T05:23:56.187Z,81.97
2018-06-15T05:26:24.337Z,82.79
2018-06-15T05:28:52.432Z,83.04
2018-06-15T05:31:20.518Z,82.74
2018-06-15T05:33:48.659Z,82.56
2018-06-15T05:36:16.772Z,82.56
2018-06-15T05:38:44.861Z,81.04
2018-06-15T05:41:19.596Z,79.36
2018-06-15T05:43:47.740Z,79.90
2018-06-15T05:46:15.847Z,79.67
2018-06-15T05:48:50.359Z,79.70
2018-06-15T05:51:18.475Z,79.64
2018-06-15T05:53:46.607Z,80.76
2018-06-15T05:56:14.688Z,81.41
2018-06-15T05:58:42.786Z,82.15
2018-06-15T06:01:11.137Z,82.77
2018-06-15T06:03:39.215Z,82.45
2018-06-15T06:06:07.312Z,82.22
2018-06-15T06:08:35.395Z,80.45
2018-06-15T06:11:03.517Z,80.81
2018-06-15T06:13:31.604Z,81.24
2018-06-15T06:15:59.684Z,81.29
2018-06-15T06:18:27.799Z,80.01
2018-06-15T06:20:55.902Z,81.26
2018-06-15T06:23:24.068Z,81.34
2018-06-15T06:25:52.164Z,80.79
2018-06-15T06:28:20.236Z,80.81
2018-06-15T06:30:48.380Z,80.18
2018-06-15T06:33:16.452Z,78.64
2018-06-15T06:35:44.557Z,78.04
2018-06-15T06:38:12.820Z,78.32
2018-06-15T06:40:40.927Z,77.64
2018-06-15T06:43:08.999Z,76.72
2018-06-15T06:45:37.106Z,78.76
2018-06-15T06:48:05.247Z,80.01
2018-06-15T06:50:33.404Z,77.87
2018-06-15T06:53:01.516Z,76.68
2018-06-15T06:55:29.636Z,78.12
2018-06-15T06:57:57.727Z,79.11
2018-06-15T07:00:25.874Z,77.84
2018-06-15T07:02:53.965Z,77.72
2018-06-15T07:05:22.078Z,77.74
2018-06-15T07:07:50.213Z,77.84
2018-06-15T07:10:18.286Z,77.80
2018-06-15T07:12:46.426Z,77.26
2018-06-15T07:15:14.505Z,76.77
2018-06-15T07:17:42.600Z,77.06
2018-06-15T07:20:10.676Z,76.59
2018-06-15T07:22:38.796Z,76.15
2018-06-15T07:25:06.881Z,74.15
2018-06-15T07:27:34.983Z,74.69
2018-06-15T07:30:03.172Z,74.63
2018-06-15T07:32:31.274Z,73.87
2018-06-15T07:34:59.388Z,73.64
2018-06-15T07:37:27.550Z,74.34
2018-06-15T07:39:55.611Z,76.30
2018-06-15T07:42:23.687Z,74.17
2018-06-15T07:44:51.759Z,74.11
2018-06-15T07:47:19.831Z,74.24
2018-06-15T07:49:47.936Z,73.64
2018-06-15T07:52:16.091Z,75.26
2018-06-15T07:54:44.166Z,74.79
2018-06-15T07:57:12.259Z,74.22
2018-06-15T07:59:40.415Z,73.93
2018-06-15T08:02:08.484Z,73.41
2018-06-15T08:04:36.589Z,71.82
2018-06-15T08:07:04.674Z,72.18
2018-06-15T08:09:32.776Z,70.96
2018-06-15T08:12:00.867Z,70.60
2018-06-15T08:14:28.951Z,70.36
2018-06-15T08:16:57.161Z,70.89
2018-06-15T08:19:25.261Z,70.91
2018-06-15T08:21:53.334Z,70.10
2018-06-15T08:24:21.528Z,69.63
2018-06-15T08:26:49.635Z,69.25
2018-06-15T08:29:17.710Z,69.42
2018-06-15T08:31:45.778Z,70.32
2018-06-15T08:34:13.864Z,69.72
2018-06-15T08:36:41.943Z,67.96
2018-06-15T08:39:11.518Z,67.37
2018-06-15T08:41:39.600Z,66.59
2018-06-15T08:44:07.680Z,67.26
2018-06-15T08:46:35.830Z,68.52
2018-06-15T08:49:03.911Z,67.75
2018-06-15T08:51:31.996Z,64.93
2018-06-15T08:54:00.073Z,61.41
2018-06-15T08:56:28.198Z,59.23
2018-06-15T08:58:56.292Z,59.02
2018-06-15T09:01:24.369Z,60.26
2018-06-15T09:03:52.447Z,63.15
2018-06-15T09:06:20.560Z,63.93
2018-06-15T09:08:48.647Z,62.14
2018-06-15T09:11:16.707Z,60.27
2018-06-15T09:13:44.808Z,60.63
2018-06-15T09:16:12.975Z,60.36
2018-06-15T09:18:41.255Z,62.79
2018-06-15T09:21:09.371Z,63.84
2018-06-15T09:23:37.449Z,61.57
2018-06-15T09:26:05.600Z,59.44
2018-06-15T09:28:33.719Z,60.26
2018-06-15T09:31:01.795Z,62.95
2018-06-15T09:33:30.032Z,62.89
2018-06-15T09:35:58.115Z,57.21
2018-06-15T09:38:26.208Z,57.89
2018-06-15T09:40:54.294Z,58.54
2018-06-15T09:43:22.375Z,62.92
2018-06-15T09:45:50.596Z,61.14
2018-06-15T09:48:18.723Z,60.70
2018-06-15T09:50:46.917Z,60.82
2018-06-15T09:53:14.995Z,61.79
2018-06-15T09:55:43.083Z,60.72
2018-06-15T09:58:11.162Z,59.32
2018-06-15T10:03:31.831Z,61.35
2018-06-15T10:05:59.903Z,62.54
2018-06-15T10:08:28.035Z,62.53
2018-06-15T10:10:56.121Z,60.32
2018-06-15T10:13:24.238Z,56.34
2018-06-15T10:15:52.378Z,56.37
2018-06-15T10:18:20.539Z,58.17
2018-06-15T10:20:48.603Z,55.70
2018-06-15T10:23:16.845Z,55.79
2018-06-15T10:25:44.977Z,59.59
2018-06-15T10:28:13.144Z,61.89
2018-06-15T10:30:41.300Z,59.36
2018-06-15T10:33:09.769Z,59.19
2018-06-15T10:35:38.002Z,57.93
2018-06-15T10:38:06.180Z,57.74
2018-06-15T10:40:34.242Z,57.41
2018-06-15T10:43:02.331Z,56.89
2018-06-15T10:45:30.428Z,56.31
2018-06-15T10:47:58.552Z,55.99
2018-06-15T10:50:26.701Z,56.49
2018-06-15T10:52:55.177Z,58.81
2018-06-15T10:55:23.362Z,58.36
2018-06-15T10:57:51.520Z,59.00
2018-06-15T11:00:19.603Z,58.14
2018-06-15T11:02:47.719Z,59.19
2018-06-15T11:05:15.864Z,59.81
2018-06-15T11:07:43.940Z,58.94
2018-06-15T11:10:12.059Z,57.53
2018-06-15T11:12:40.174Z,54.42
2018-06-15T11:15:08.236Z,55.27
2018-06-15T11:17:36.322Z,56.08
2018-06-15T11:20:05.234Z,55.25
2018-06-15T11:22:33.336Z,56.36
2018-06-15T11:25:01.506Z,56.14
2018-06-15T11:27:29.598Z,55.48
2018-06-15T11:29:57.671Z,58.53
2018-06-15T11:32:25.754Z,59.10
2018-06-15T11:34:53.937Z,59.39
2018-06-15T11:37:22.134Z,60.55
2018-06-15T11:39:50.225Z,59.34
2018-06-15T11:42:18.299Z,56.84
2018-06-15T11:44:46.381Z,55.19
2018-06-15T11:47:14.471Z,54.52
2018-06-15T11:49:42.561Z,55.07
2018-06-15T11:52:10.703Z,57.38
2018-06-15T11:54:38.778Z,58.59
2018-06-15T11:57:06.904Z,56.21
2018-06-15T11:59:34.999Z,53.88
2018-06-15T12:02:03.088Z,56.06
2018-06-15T12:04:31.207Z,54.44
2018-06-15T12:06:59.287Z,53.40
2018-06-15T12:09:27.396Z,58.14
2018-06-15T12:11:55.484Z,55.24
2018-06-15T12:14:23.566Z,53.07
2018-06-15T12:16:51.631Z,52.93
2018-06-15T12:19:19.711Z,53.29
2018-06-15T12:21:47.802Z,55.47
2018-06-15T12:24:15.900Z,55.96
2018-06-15T12:26:44.004Z,55.47
2018-06-15T12:29:12.144Z,53.09
2018-06-15T12:31:40.231Z,54.90
2018-06-15T12:34:08.363Z,54.18
2018-06-15T12:36:36.423Z,53.20
2018-06-15T12:39:07.224Z,53.87
2018-06-15T12:41:35.303Z,53.16
2018-06-15T12:44:03.416Z,56.06
2018-06-15T12:46:31.495Z,56.98
2018-06-15T12:48:59.600Z,56.70
2018-06-15T12:51:27.700Z,55.93
2018-06-15T12:53:55.786Z,55.25
2018-06-15T12:56:23.860Z,52.60
2018-06-15T12:58:52.004Z,49.44
2018-06-15T13:01:20.095Z,49.97
2018-06-15T13:03:48.180Z,49.10
2018-06-15T13:06:16.255Z,49.75
2018-06-15T13:08:44.346Z,52.48
2018-06-15T13:11:12.452Z,50.62
2018-06-15T13:13:40.596Z,51.44
2018-06-15T13:16:08.711Z,51.94
2018-06-15T13:18:36.811Z,52.78
2018-06-15T13:21:04.907Z,50.75
2018-06-15T13:23:34.967Z,51.37
2018-06-15T13:26:03.069Z,50.26
2018-06-15T13:28:31.268Z,50.79
2018-06-15T13:30:59.365Z,51.63
2018-06-15T13:33:27.439Z,52.80
2018-06-15T13:35:56.358Z,51.67
2018-06-15T13:38:24.458Z,51.81
2018-06-15T13:40:52.531Z,51.68
2018-06-15T13:43:20.652Z,50.09
2018-06-15T13:45:48.746Z,48.86
2018-06-15T13:48:16.872Z,49.01
2018-06-15T13:50:45.057Z,50.18
2018-06-15T13:53:13.173Z,48.46
2018-06-15T13:55:41.296Z,48.54
2018-06-15T13:58:09.382Z,50.87
2018-06-15T14:00:37.478Z,53.83
2018-06-15T14:03:05.554Z,52.41
2018-06-15T14:05:33.654Z,54.38
2018-06-15T14:08:01.743Z,52.52
2018-06-15T14:10:29.833Z,52.87
2018-06-15T14:12:57.957Z,53.59
2018-06-15T14:15:26.080Z,54.40
2018-06-15T14:17:54.203Z,52.53
2018-06-15T14:20:22.328Z,54.46
2018-06-15T14:22:50.420Z,57.02
2018-06-15T14:25:18.507Z,53.59
2018-06-15T14:27:50.549Z,56.06
2018-06-15T14:30:18.663Z,56.36
2018-06-15T14:32:46.792Z,56.65
2018-06-15T14:35:14.867Z,56.58
2018-06-15T14:37:42.976Z,53.05
2018-06-15T14:40:11.131Z,54.90
2018-06-15T14:42:39.197Z,54.77
2018-06-15T14:45:07.428Z,52.50
2018-06-15T14:47:35.496Z,52.59
2018-06-15T14:50:03.625Z,52.03
2018-06-15T14:52:31.824Z,52.89
2018-06-15T14:54:59.906Z,53.06
2018-06-15T14:57:28.011Z,55.76
2018-06-15T14:59:56.189Z,55.58
2018-06-15T15:02:24.324Z,56.19
2018-06-15T15:04:52.691Z,55.05
2018-06-15T15:07:20.720Z,52.57
2018-06-15T15:09:48.864Z,53.11
2018-06-15T15:12:16.936Z,55.28
2018-06-15T15:14:45.169Z,57.38
2018-06-15T15:17:13.256Z,56.55
2018-06-15T15:19:41.363Z,57.09
2018-06-15T15:22:09.519Z,55.29
2018-06-15T15:24:37.629Z,58.22
2018-06-15T15:27:05.705Z,55.87
2018-06-15T15:29:33.776Z,57.16
2018-06-15T15:32:01.890Z,58.39
2018-06-15T15:34:29.997Z,56.21
2018-06-15T15:36:58.104Z,56.69
2018-06-15T15:39:26.193Z,55.18
2018-06-15T15:41:54.358Z,56.37
2018-06-15T15:44:22.453Z,56.54
2018-06-15T15:46:50.529Z,55.53
2018-06-15T15:49:18.682Z,57.94
2018-06-15T15:51:46.780Z,56.35
2018-06-15T15:54:14.887Z,55.79
2018-06-15T15:56:43.041Z,56.27
2018-06-15T15:59:11.178Z,55.60
2018-06-15T16:01:39.278Z,58.92
2018-06-15T16:04:07.366Z,59.11
2018-06-15T16:06:35.450Z,56.91
2018-06-15T16:09:04.527Z,58.21
2018-06-15T16:11:32.631Z,59.04
2018-06-15T16:14:00.701Z,58.37
2018-06-15T16:16:28.794Z,60.47
2018-06-15T16:18:56.990Z,60.33
2018-06-15T16:21:25.076Z,60.36
2018-06-15T16:23:53.160Z,59.02
2018-06-15T16:26:21.261Z,60.64
2018-06-15T16:28:49.351Z,59.35
2018-06-15T16:31:17.424Z,60.64
2018-06-15T16:33:45.506Z,60.38
2018-06-15T16:36:14.617Z,60.56
2018-06-15T16:38:43.644Z,59.99
2018-06-15T16:41:12.039Z,60.55
2018-06-15T16:43:40.375Z,61.26
2018-06-15T16:46:08.719Z,60.83
2018-06-15T16:48:37.658Z,60.09
2018-06-15T16:51:05.799Z,60.76
2018-06-15T16:53:34.385Z,61.65
2018-06-15T16:56:03.816Z,62.00
2018-06-15T16:58:32.270Z,61.29
2018-06-15T17:01:00.443Z,60.41
2018-06-15T17:03:38.078Z,61.14
2018-06-15T17:06:06.434Z,61.30
2018-06-15T17:08:34.673Z,61.73
2018-06-15T17:11:02.911Z,60.64
2018-06-15T17:13:31.259Z,60.16
2018-06-15T17:15:59.487Z,58.95
2018-06-15T17:18:28.067Z,60.79
2018-06-15T17:20:56.293Z,60.21
2018-06-15T17:23:24.461Z,59.92
2018-06-15T17:25:52.795Z,60.55
2018-06-15T17:28:21.161Z,60.05
2018-06-15T17:30:52.298Z,60.04
2018-06-15T17:33:20.469Z,62.47
2018-06-15T17:35:48.912Z,61.04
2018-06-15T17:38:17.240Z,59.84
2018-06-15T17:40:45.760Z,61.50
2018-06-15T17:43:14.191Z,60.53
2018-06-15T17:45:42.374Z,60.75
2018-06-15T17:48:10.621Z,61.49
2018-06-15T17:50:39.811Z,59.49
2018-06-15T17:53:07.952Z,60.94
2018-06-15T17:55:36.415Z,60.14
2018-06-15T17:58:04.702Z,60.26
2018-06-15T18:00:32.846Z,61.00
2018-06-15T18:03:01.101Z,59.63
2018-06-15T18:05:29.213Z,59.46
2018-06-15T18:07:58.559Z,60.04
2018-06-15T18:10:26.723Z,60.55
2018-06-15T18:12:54.849Z,61.01
2018-06-15T18:15:22.970Z,61.21
2018-06-15T18:17:51.153Z,62.04
2018-06-15T18:20:19.287Z,60.61
2018-06-15T18:22:47.407Z,60.70
2018-06-15T18:25:15.554Z,62.19
2018-06-15T18:27:43.681Z,62.69
2018-06-15T18:30:11.811Z,63.23
2018-06-15T18:32:50.537Z,62.97
2018-06-15T18:35:18.676Z,63.17
2018-06-15T18:37:46.903Z,64.29
2018-06-15T18:40:15.282Z,63.59
2018-06-15T18:42:44.551Z,63.50
2018-06-15T18:45:12.738Z,63.87
2018-06-15T18:47:40.863Z,64.40
2018-06-15T18:50:09.104Z,65.61
2018-06-15T18:52:38.740Z,65.40
2018-06-15T18:55:06.946Z,65.63
2018-06-15T18:57:42.878Z,66.47
2018-06-15T19:00:11.922Z,66.72
2018-06-15T19:02:40.146Z,67.07
2018-06-15T19:05:08.366Z,65.67
2018-06-15T19:07:37.174Z,66.64
2018-06-15T19:10:05.291Z,67.81
2018-06-15T19:12:33.580Z,68.47
2018-06-15T19:15:01.766Z,67.58
2018-06-15T19:17:29.941Z,67.04
2018-06-15T19:19:58.190Z,67.84
2018-06-15T19:22:26.388Z,68.60
2018-06-15T19:24:54.539Z,69.21
2018-06-15T19:27:22.763Z,70.46
2018-06-15T19:29:51.020Z,70.68
2018-06-15T19:32:19.153Z,70.75
2018-06-15T19:34:47.423Z,70.92
2018-06-15T19:37:15.517Z,69.41
2018-06-15T19:39:43.706Z,69.47
2018-06-15T19:42:11.907Z,69.83
2018-06-15T19:44:40.023Z,70.08
2018-06-15T19:47:08.139Z,69.02
2018-06-15T19:49:36.245Z,70.53
2018-06-15T19:52:04.671Z,71.52
2018-06-15T19:54:34.060Z,72.00
2018-06-15T19:57:02.213Z,73.08
2018-06-15T19:59:30.364Z,71.39
2018-06-15T20:01:59.087Z,71.75
2018-06-15T20:04:35.129Z,70.52
2018-06-15T20:07:03.293Z,70.36
2018-06-15T20:09:31.399Z,71.26
2018-06-15T20:11:59.752Z,71.25
2018-06-15T20:14:27.879Z,71.28
2018-06-15T20:16:56.052Z,71.77
2018-06-15T20:19:24.179Z,71.46
2018-06-15T20:21:52.336Z,71.81
2018-06-15T20:24:20.448Z,72.04
2018-06-15T20:26:48.748Z,72.01
2018-06-15T20:29:16.917Z,74.66
2018-06-15T20:31:45.037Z,75.47
2018-06-15T20:34:13.174Z,75.44
2018-06-15T20:36:41.292Z,75.88
2018-06-15T20:39:10.155Z,75.49
2018-06-15T20:41:38.618Z,75.00
2018-06-15T20:44:07.032Z,74.30
2018-06-15T20:46:35.520Z,76.45
2018-06-15T20:49:03.915Z,77.37
2018-06-15T20:51:32.130Z,77.27
2018-06-15T20:54:00.289Z,77.01
2018-06-15T20:56:28.680Z,75.81
2018-06-15T20:58:56.875Z,77.06
2018-06-15T21:01:25.148Z,77.66
2018-06-15T21:03:53.332Z,78.66
2018-06-15T21:06:21.497Z,79.04
2018-06-15T21:08:49.726Z,79.40
2018-06-15T21:11:17.867Z,78.66
2018-06-15T21:13:46.037Z,78.35
2018-06-15T21:16:14.260Z,77.67
2018-06-15T21:18:46.899Z,77.85
2018-06-15T21:21:15.076Z,78.48
2018-06-15T21:23:43.199Z,79.54
2018-06-15T21:26:11.346Z,80.22
2018-06-15T21:28:39.501Z,81.03
2018-06-15T21:31:07.695Z,81.89
2018-06-15T21:33:37.272Z,82.15
2018-06-15T21:36:05.446Z,82.36
2018-06-15T21:38:33.632Z,82.17
2018-06-15T21:41:01.770Z,83.31
2018-06-15T21:43:29.914Z,83.44
2018-06-15T21:45:58.293Z,83.47
2018-06-15T21:48:28.282Z,82.74
2018-06-15T21:50:56.467Z,82.59
2018-06-15T21:53:24.589Z,83.13
2018-06-15T21:55:52.725Z,83.15
2018-06-15T21:58:20.901Z,83.17
2018-06-15T22:00:48.993Z,85.27
2018-06-15T22:03:17.122Z,85.50
2018-06-15T22:05:45.247Z,87.11
2018-06-15T22:08:13.469Z,86.90
2018-06-15T22:10:41.725Z,87.32
2018-06-15T22:13:09.918Z,87.07
2018-06-15T22:15:38.075Z,85.34
2018-06-15T22:18:08.801Z,85.08
2018-06-15T22:20:37.079Z,84.34
2018-06-15T22:23:05.247Z,84.58
2018-06-15T22:25:33.488Z,87.57
2018-06-15T22:28:01.798Z,87.64
2018-06-15T22:30:29.910Z,88.39
2018-06-15T22:32:58.271Z,88.98
2018-06-15T22:35:26.398Z,89.23
2018-06-15T22:37:54.735Z,89.43
2018-06-15T22:40:23.255Z,89.47
2018-06-15T22:42:51.439Z,88.93
2018-06-15T22:45:20.121Z,87.54
2018-06-15T22:47:48.426Z,87.50
2018-06-15T22:50:16.487Z,88.03
2018-06-15T22:52:44.574Z,89.10
2018-06-15T22:55:12.735Z,89.86
2018-06-15T22:57:40.848Z,88.84
2018-06-15T23:00:08.951Z,88.76
2018-06-15T23:02:37.197Z,90.18
2018-06-15T23:05:05.344Z,91.03
2018-06-15T23:07:33.467Z,90.84
2018-06-15T23:10:01.653Z,91.52
2018-06-15T23:12:29.723Z,90.26
2018-06-15T23:16:14.315Z,90.16
2018-06-15T23:18:43.211Z,90.41
2018-06-15T23:21:11.477Z,91.15
2018-06-15T23:23:39.727Z,89.31
2018-06-15T23:26:08.440Z,87.96
2018-06-15T23:28:37.444Z,88.66
2018-06-15T23:31:06.711Z,90.10
2018-06-15T23:33:42.150Z,90.13
2018-06-15T23:36:14.912Z,90.35
2018-06-15T23:38:44.572Z,90.61
2018-06-15T23:41:14.728Z,91.70
2018-06-15T23:43:44.654Z,91.95
2018-06-15T23:46:13.600Z,91.90
2018-06-15T23:48:41.985Z,92.34
2018-06-15T23:51:10.302Z,94.04
2018-06-15T23:53:38.690Z,93.16
2018-06-15T23:56:07.130Z,93.37
2018-06-15T23:58:35.531Z,93.22
